sensor_id;sensor_type;location;lat;lon;timestamp;pressure;altitude;pressure_sealevel;temperature;humidity
74613;BME280;63119;51.788;8.824;2023-04-19T00:02:24;101167.03;;;10.64;66.40
74613;BME280;63119;51.788;8.824;2023-04-19T00:04:50;101162.63;;;10.82;66.53
74613;BME280;63119;51.788;8.824;2023-04-19T00:07:15;101170.88;;;10.76;65.15
74613;BME280;63119;51.788;8.824;2023-04-19T00:09:41;101165.66;;;10.74;65.36
74613;BME280;63119;51.788;8.824;2023-04-19T00:12:06;101168.00;;;10.63;65.88
74613;BME280;63119;51.788;8.824;2023-04-19T00:14:31;101160.66;;;10.51;65.79
74613;BME280;63119;51.788;8.824;2023-04-19T00:16:56;101162.50;;;10.49;65.51
74613;BME280;63119;51.788;8.824;2023-04-19T00:19:22;101167.03;;;10.64;65.31
74613;BME280;63119;51.788;8.824;2023-04-19T00:21:48;101163.28;;;10.51;65.24
74613;BME280;63119;51.788;8.824;2023-04-19T00:24:13;101157.34;;;10.46;65.17
74613;BME280;63119;51.788;8.824;2023-04-19T00:26:38;101153.47;;;10.53;64.59
74613;BME280;63119;51.788;8.824;2023-04-19T00:29:03;101148.16;;;10.36;65.49
74613;BME280;63119;51.788;8.824;2023-04-19T00:31:29;101142.88;;;10.36;65.52
74613;BME280;63119;51.788;8.824;2023-04-19T00:33:55;101134.22;;;10.32;65.64
74613;BME280;63119;51.788;8.824;2023-04-19T00:36:20;101145.72;;;10.31;65.82
74613;BME280;63119;51.788;8.824;2023-04-19T00:38:45;101137.06;;;10.28;65.62
74613;BME280;63119;51.788;8.824;2023-04-19T00:41:11;101133.31;;;10.15;65.50
74613;BME280;63119;51.788;8.824;2023-04-19T00:43:36;101140.88;;;10.22;65.09
74613;BME280;63119;51.788;8.824;2023-04-19T00:46:01;101131.88;;;10.26;65.19
74613;BME280;63119;51.788;8.824;2023-04-19T00:48:27;101137.59;;;10.17;64.00
74613;BME280;63119;51.788;8.824;2023-04-19T00:50:53;101138.03;;;10.27;63.98
74613;BME280;63119;51.788;8.824;2023-04-19T00:53:19;101137.50;;;10.37;63.88
74613;BME280;63119;51.788;8.824;2023-04-19T00:55:44;101140.28;;;10.34;63.64
74613;BME280;63119;51.788;8.824;2023-04-19T00:58:09;101131.34;;;10.37;63.14
74613;BME280;63119;51.788;8.824;2023-04-19T01:00:35;101132.28;;;10.36;63.28
74613;BME280;63119;51.788;8.824;2023-04-19T01:03:01;101138.63;;;10.15;63.33
74613;BME280;63119;51.788;8.824;2023-04-19T01:05:26;101136.59;;;10.20;63.31
74613;BME280;63119;51.788;8.824;2023-04-19T01:07:51;101131.00;;;10.26;62.87
74613;BME280;63119;51.788;8.824;2023-04-19T01:10:17;101128.03;;;10.15;63.06
74613;BME280;63119;51.788;8.824;2023-04-19T01:12:42;101131.91;;;10.06;63.19
74613;BME280;63119;51.788;8.824;2023-04-19T01:15:08;101132.63;;;10.10;63.46
74613;BME280;63119;51.788;8.824;2023-04-19T01:17:33;101134.25;;;10.14;63.16
74613;BME280;63119;51.788;8.824;2023-04-19T01:20:03;101129.59;;;10.19;63.09
74613;BME280;63119;51.788;8.824;2023-04-19T01:22:31;101134.16;;;10.15;62.97
74613;BME280;63119;51.788;8.824;2023-04-19T01:24:57;101134.88;;;10.19;62.69
74613;BME280;63119;51.788;8.824;2023-04-19T01:27:23;101137.94;;;10.10;62.77
74613;BME280;63119;51.788;8.824;2023-04-19T01:29:48;101134.28;;;10.12;62.13
74613;BME280;63119;51.788;8.824;2023-04-19T01:32:14;101133.44;;;9.93;62.64
74613;BME280;63119;51.788;8.824;2023-04-19T01:34:39;101129.66;;;9.99;62.31
74613;BME280;63119;51.788;8.824;2023-04-19T01:37:06;101130.84;;;9.92;61.55
74613;BME280;63119;51.788;8.824;2023-04-19T01:39:31;101125.66;;;9.90;61.86
74613;BME280;63119;51.788;8.824;2023-04-19T01:41:56;101135.03;;;9.78;61.83
74613;BME280;63119;51.788;8.824;2023-04-19T01:44:22;101118.88;;;9.84;61.54
74613;BME280;63119;51.788;8.824;2023-04-19T01:46:47;101120.84;;;9.79;60.74
74613;BME280;63119;51.788;8.824;2023-04-19T01:49:12;101129.31;;;9.87;60.74
74613;BME280;63119;51.788;8.824;2023-04-19T01:51:37;101117.78;;;9.88;61.08
74613;BME280;63119;51.788;8.824;2023-04-19T01:54:03;101119.41;;;9.91;60.70
74613;BME280;63119;51.788;8.824;2023-04-19T01:56:28;101109.22;;;9.83;61.27
74613;BME280;63119;51.788;8.824;2023-04-19T01:58:54;101106.16;;;9.93;61.08
74613;BME280;63119;51.788;8.824;2023-04-19T02:01:19;101118.22;;;9.79;60.80
74613;BME280;63119;51.788;8.824;2023-04-19T02:03:44;101105.94;;;9.78;60.77
74613;BME280;63119;51.788;8.824;2023-04-19T02:06:10;101104.09;;;9.80;61.11
74613;BME280;63119;51.788;8.824;2023-04-19T02:08:40;101102.72;;;9.91;61.26
74613;BME280;63119;51.788;8.824;2023-04-19T02:11:09;101102.72;;;9.91;61.28
74613;BME280;63119;51.788;8.824;2023-04-19T02:13:35;101105.28;;;9.73;61.05
74613;BME280;63119;51.788;8.824;2023-04-19T02:16:01;101104.38;;;9.74;60.73
74613;BME280;63119;51.788;8.824;2023-04-19T02:18:30;101110.84;;;9.67;61.30
74613;BME280;63119;51.788;8.824;2023-04-19T02:20:56;101099.38;;;9.68;61.46
74613;BME280;63119;51.788;8.824;2023-04-19T02:23:21;101102.31;;;9.81;61.02
74613;BME280;63119;51.788;8.824;2023-04-19T02:25:47;101101.59;;;9.77;61.26
74613;BME280;63119;51.788;8.824;2023-04-19T02:28:12;101093.38;;;9.83;61.14
74613;BME280;63119;51.788;8.824;2023-04-19T02:30:37;101086.22;;;9.85;61.07
74613;BME280;63119;51.788;8.824;2023-04-19T02:33:02;101105.00;;;9.79;61.10
74613;BME280;63119;51.788;8.824;2023-04-19T02:35:28;101094.28;;;9.82;60.44
74613;BME280;63119;51.788;8.824;2023-04-19T02:37:53;101093.13;;;9.88;61.24
74613;BME280;63119;51.788;8.824;2023-04-19T02:40:18;101101.63;;;9.95;60.91
74613;BME280;63119;51.788;8.824;2023-04-19T02:42:45;101095.44;;;9.77;61.36
74613;BME280;63119;51.788;8.824;2023-04-19T02:45:10;101096.44;;;9.93;60.61
74613;BME280;63119;51.788;8.824;2023-04-19T02:47:35;101096.88;;;9.84;60.31
74613;BME280;63119;51.788;8.824;2023-04-19T02:50:00;101088.28;;;9.79;60.78
74613;BME280;63119;51.788;8.824;2023-04-19T02:52:26;101099.81;;;9.78;59.41
74613;BME280;63119;51.788;8.824;2023-04-19T02:54:51;101094.28;;;9.82;58.96
74613;BME280;63119;51.788;8.824;2023-04-19T02:57:17;101102.88;;;9.87;59.34
74613;BME280;63119;51.788;8.824;2023-04-19T02:59:42;101107.00;;;9.74;58.55
74613;BME280;63119;51.788;8.824;2023-04-19T03:02:07;101111.38;;;9.75;58.29
74613;BME280;63119;51.788;8.824;2023-04-19T03:04:32;101110.28;;;9.79;58.32
74613;BME280;63119;51.788;8.824;2023-04-19T03:06:58;101112.78;;;9.64;57.39
74613;BME280;63119;51.788;8.824;2023-04-19T03:09:24;101109.78;;;9.71;57.28
74613;BME280;63119;51.788;8.824;2023-04-19T03:11:49;101109.84;;;9.70;56.04
74613;BME280;63119;51.788;8.824;2023-04-19T03:14:14;101108.59;;;9.60;55.31
74613;BME280;63119;51.788;8.824;2023-04-19T03:16:40;101115.56;;;9.61;54.18
74613;BME280;63119;51.788;8.824;2023-04-19T03:19:05;101118.88;;;9.66;54.40
74613;BME280;63119;51.788;8.824;2023-04-19T03:21:31;101113.25;;;9.34;53.84
74613;BME280;63119;51.788;8.824;2023-04-19T03:23:56;101107.13;;;9.34;53.89
74613;BME280;63119;51.788;8.824;2023-04-19T03:26:21;101111.47;;;9.35;54.05
74613;BME280;63119;51.788;8.824;2023-04-19T03:28:46;101109.56;;;9.18;54.12
74613;BME280;63119;51.788;8.824;2023-04-19T03:31:13;101109.00;;;9.12;53.90
74613;BME280;63119;51.788;8.824;2023-04-19T03:33:38;101105.97;;;9.21;54.43
74613;BME280;63119;51.788;8.824;2023-04-19T03:36:04;101109.13;;;9.29;54.68
74613;BME280;63119;51.788;8.824;2023-04-19T03:38:29;101099.81;;;9.20;54.75
74613;BME280;63119;51.788;8.824;2023-04-19T03:40:55;101101.31;;;9.26;54.90
74613;BME280;63119;51.788;8.824;2023-04-19T03:43:21;101098.00;;;9.02;54.61
74613;BME280;63119;51.788;8.824;2023-04-19T03:45:46;101102.78;;;9.13;54.96
74613;BME280;63119;51.788;8.824;2023-04-19T03:48:11;101103.88;;;9.09;54.96
74613;BME280;63119;51.788;8.824;2023-04-19T03:50:37;101100.63;;;9.02;55.08
74613;BME280;63119;51.788;8.824;2023-04-19T03:53:03;101098.81;;;9.03;55.89
74613;BME280;63119;51.788;8.824;2023-04-19T03:55:29;101099.78;;;9.02;55.08
74613;BME280;63119;51.788;8.824;2023-04-19T03:57:54;101105.78;;;9.05;56.01
74613;BME280;63119;51.788;8.824;2023-04-19T04:00:20;101104.84;;;9.06;55.39
74613;BME280;63119;51.788;8.824;2023-04-19T04:02:45;101103.91;;;9.07;54.79
74613;BME280;63119;51.788;8.824;2023-04-19T04:05:10;101110.94;;;9.08;54.60
74613;BME280;63119;51.788;8.824;2023-04-19T04:07:36;101110.03;;;8.88;54.48
74613;BME280;63119;51.788;8.824;2023-04-19T04:10:01;101102.81;;;8.93;54.47
74613;BME280;63119;51.788;8.824;2023-04-19T04:12:26;101111.25;;;8.81;53.12
74613;BME280;63119;51.788;8.824;2023-04-19T04:14:51;101110.44;;;8.78;53.33
74613;BME280;63119;51.788;8.824;2023-04-19T04:17:17;101115.06;;;8.53;52.98
74613;BME280;63119;51.788;8.824;2023-04-19T04:19:42;101123.09;;;8.50;52.83
74613;BME280;63119;51.788;8.824;2023-04-19T04:22:07;101120.34;;;8.53;52.96
74613;BME280;63119;51.788;8.824;2023-04-19T04:24:39;101126.69;;;8.26;53.34
74613;BME280;63119;51.788;8.824;2023-04-19T04:27:06;101123.84;;;8.32;51.64
74613;BME280;63119;51.788;8.824;2023-04-19T04:29:37;101126.25;;;8.38;52.05
74613;BME280;63119;51.788;8.824;2023-04-19T04:32:04;101122.63;;;8.41;51.55
74613;BME280;63119;51.788;8.824;2023-04-19T04:34:30;101133.28;;;8.38;51.28
74613;BME280;63119;51.788;8.824;2023-04-19T04:36:55;101132.16;;;8.43;51.89
74613;BME280;63119;51.788;8.824;2023-04-19T04:39:20;101135.22;;;8.11;51.83
74613;BME280;63119;51.788;8.824;2023-04-19T04:41:47;101133.78;;;8.24;51.83
74613;BME280;63119;51.788;8.824;2023-04-19T04:44:13;101144.41;;;8.22;52.11
74613;BME280;63119;51.788;8.824;2023-04-19T04:46:39;101151.16;;;8.08;51.72
74613;BME280;63119;51.788;8.824;2023-04-19T04:49:04;101142.16;;;7.68;52.64
74613;BME280;63119;51.788;8.824;2023-04-19T04:51:30;101141.25;;;7.91;52.04
74613;BME280;63119;51.788;8.824;2023-04-19T04:53:55;101147.50;;;7.89;52.80
74613;BME280;63119;51.788;8.824;2023-04-19T04:56:21;101147.41;;;7.68;53.50
74613;BME280;63119;51.788;8.824;2023-04-19T04:58:46;101156.31;;;7.88;52.52
74613;BME280;63119;51.788;8.824;2023-04-19T05:01:11;101150.09;;;7.90;52.91
74613;BME280;63119;51.788;8.824;2023-04-19T05:03:36;101156.38;;;7.63;53.39
74613;BME280;63119;51.788;8.824;2023-04-19T05:06:02;101158.50;;;7.77;53.22
74613;BME280;63119;51.788;8.824;2023-04-19T05:08:27;101157.31;;;7.62;53.75
74613;BME280;63119;51.788;8.824;2023-04-19T05:10:52;101160.81;;;7.62;53.53
74613;BME280;63119;51.788;8.824;2023-04-19T05:13:17;101160.09;;;7.57;54.39
74613;BME280;63119;51.788;8.824;2023-04-19T05:15:43;101156.69;;;7.55;53.75
74613;BME280;63119;51.788;8.824;2023-04-19T05:18:08;101157.72;;;7.75;54.23
74613;BME280;63119;51.788;8.824;2023-04-19T05:20:33;101162.44;;;7.42;54.56
74613;BME280;63119;51.788;8.824;2023-04-19T05:22:59;101166.75;;;7.91;53.71
74613;BME280;63119;51.788;8.824;2023-04-19T05:25:25;101164.97;;;7.91;53.34
74613;BME280;63119;51.788;8.824;2023-04-19T05:27:51;101170.72;;;8.02;52.73
74613;BME280;63119;51.788;8.824;2023-04-19T05:30:16;101167.06;;;8.28;53.06
74613;BME280;63119;51.788;8.824;2023-04-19T05:32:41;101160.66;;;8.35;52.86
74613;BME280;63119;51.788;8.824;2023-04-19T05:35:07;101165.19;;;8.32;53.20
74613;BME280;63119;51.788;8.824;2023-04-19T05:37:32;101159.97;;;8.07;52.72
74613;BME280;63119;51.788;8.824;2023-04-19T05:39:57;101157.19;;;7.88;53.56
74613;BME280;63119;51.788;8.824;2023-04-19T05:42:23;101161.94;;;8.02;52.70
74613;BME280;63119;51.788;8.824;2023-04-19T05:44:48;101160.22;;;8.01;52.98
74613;BME280;63119;51.788;8.824;2023-04-19T05:47:13;101156.78;;;7.99;52.43
74613;BME280;63119;51.788;8.824;2023-04-19T05:49:39;101166.63;;;8.17;52.44
74613;BME280;63119;51.788;8.824;2023-04-19T05:52:04;101162.13;;;8.19;51.86
74613;BME280;63119;51.788;8.824;2023-04-19T05:54:30;101158.00;;;8.35;52.42
74613;BME280;63119;51.788;8.824;2023-04-19T05:56:59;101161.59;;;8.11;52.00
74613;BME280;63119;51.788;8.824;2023-04-19T05:59:25;101151.25;;;8.50;51.74
74613;BME280;63119;51.788;8.824;2023-04-19T06:01:50;101153.06;;;8.69;51.56
74613;BME280;63119;51.788;8.824;2023-04-19T06:04:16;101153.00;;;8.71;50.85
74613;BME280;63119;51.788;8.824;2023-04-19T06:06:41;101154.91;;;8.46;50.69
74613;BME280;63119;51.788;8.824;2023-04-19T06:09:07;101149.44;;;8.72;50.29
74613;BME280;63119;51.788;8.824;2023-04-19T06:11:32;101154.78;;;8.49;50.04
74613;BME280;63119;51.788;8.824;2023-04-19T06:13:57;101151.34;;;8.68;50.18
74613;BME280;63119;51.788;8.824;2023-04-19T06:16:23;101150.72;;;9.04;49.74
74613;BME280;63119;51.788;8.824;2023-04-19T06:18:48;101150.66;;;9.25;48.53
74613;BME280;63119;51.788;8.824;2023-04-19T06:21:14;101144.88;;;9.75;46.72
74613;BME280;63119;51.788;8.824;2023-04-19T06:23:39;101148.59;;;10.27;46.15
74613;BME280;63119;51.788;8.824;2023-04-19T06:26:04;101147.91;;;10.93;45.45
74613;BME280;63119;51.788;8.824;2023-04-19T06:28:30;101153.91;;;11.14;44.38
74613;BME280;63119;51.788;8.824;2023-04-19T06:30:55;101166.28;;;11.14;43.68
74613;BME280;63119;51.788;8.824;2023-04-19T06:33:20;101155.06;;;10.91;45.00
74613;BME280;63119;51.788;8.824;2023-04-19T06:35:45;101160.09;;;10.45;45.52
74613;BME280;63119;51.788;8.824;2023-04-19T06:38:11;101155.81;;;11.28;45.23
74613;BME280;63119;51.788;8.824;2023-04-19T06:40:36;101157.69;;;11.26;44.69
74613;BME280;63119;51.788;8.824;2023-04-19T06:43:02;101168.41;;;11.57;44.25
74613;BME280;63119;51.788;8.824;2023-04-19T06:45:27;101168.78;;;11.17;45.14
74613;BME280;63119;51.788;8.824;2023-04-19T06:47:53;101164.22;;;10.67;45.31
74613;BME280;63119;51.788;8.824;2023-04-19T06:50:18;101165.59;;;9.65;48.53
74613;BME280;63119;51.788;8.824;2023-04-19T06:52:43;101169.75;;;10.08;47.64
74613;BME280;63119;51.788;8.824;2023-04-19T06:55:09;101169.16;;;9.83;48.16
74613;BME280;63119;51.788;8.824;2023-04-19T06:57:35;101165.13;;;10.13;46.28
74613;BME280;63119;51.788;8.824;2023-04-19T07:00:00;101162.78;;;10.43;45.97
74613;BME280;63119;51.788;8.824;2023-04-19T07:02:25;101160.72;;;10.31;47.22
74613;BME280;63119;51.788;8.824;2023-04-19T07:04:51;101166.25;;;10.62;45.35
74613;BME280;63119;51.788;8.824;2023-04-19T07:07:16;101170.72;;;10.43;47.13
74613;BME280;63119;51.788;8.824;2023-04-19T07:09:41;101162.03;;;10.58;46.67
74613;BME280;63119;51.788;8.824;2023-04-19T07:12:07;101166.28;;;10.06;47.54
74613;BME280;63119;51.788;8.824;2023-04-19T07:14:32;101164.59;;;10.05;47.36
74613;BME280;63119;51.788;8.824;2023-04-19T07:16:57;101156.78;;;11.10;44.73
74613;BME280;63119;51.788;8.824;2023-04-19T07:19:23;101154.25;;;11.41;43.63
74613;BME280;63119;51.788;8.824;2023-04-19T07:21:49;101159.22;;;11.47;44.38
74613;BME280;63119;51.788;8.824;2023-04-19T07:24:14;101147.59;;;10.82;43.76
74613;BME280;63119;51.788;8.824;2023-04-19T07:26:40;101145.78;;;11.67;43.80
74613;BME280;63119;51.788;8.824;2023-04-19T07:29:05;101140.78;;;11.28;42.75
74613;BME280;63119;51.788;8.824;2023-04-19T07:31:30;101146.50;;;11.04;44.68
74613;BME280;63119;51.788;8.824;2023-04-19T07:33:56;101150.06;;;11.20;44.07
74613;BME280;63119;51.788;8.824;2023-04-19T07:36:21;101148.97;;;11.07;44.10
74613;BME280;63119;51.788;8.824;2023-04-19T07:38:46;101148.78;;;11.44;43.71
74613;BME280;63119;51.788;8.824;2023-04-19T07:41:11;101129.69;;;11.55;43.88
74613;BME280;63119;51.788;8.824;2023-04-19T07:43:37;101133.09;;;11.24;43.84
74613;BME280;63119;51.788;8.824;2023-04-19T07:46:09;101130.03;;;11.97;43.37
74613;BME280;63119;51.788;8.824;2023-04-19T07:48:34;101133.44;;;12.30;42.66
74613;BME280;63119;51.788;8.824;2023-04-19T07:51:16;101132.41;;;12.01;41.71
74613;BME280;63119;51.788;8.824;2023-04-19T07:53:42;101122.00;;;12.59;41.64
74613;BME280;63119;51.788;8.824;2023-04-19T07:56:09;101126.69;;;12.70;41.01
74613;BME280;63119;51.788;8.824;2023-04-19T07:58:35;101124.41;;;12.48;41.70
74613;BME280;63119;51.788;8.824;2023-04-19T08:01:01;101128.88;;;12.32;40.67
74613;BME280;63119;51.788;8.824;2023-04-19T08:03:26;101128.72;;;11.56;41.25
74613;BME280;63119;51.788;8.824;2023-04-19T08:05:51;101127.59;;;11.77;40.81
74613;BME280;63119;51.788;8.824;2023-04-19T08:08:17;101123.34;;;11.24;41.74
74613;BME280;63119;51.788;8.824;2023-04-19T08:10:42;101121.88;;;11.02;41.17
74613;BME280;63119;51.788;8.824;2023-04-19T08:13:07;101125.06;;;10.74;41.71
74613;BME280;63119;51.788;8.824;2023-04-19T08:15:33;101117.13;;;11.08;43.48
74613;BME280;63119;51.788;8.824;2023-04-19T08:17:59;101127.50;;;10.95;43.21
74613;BME280;63119;51.788;8.824;2023-04-19T08:20:24;101120.75;;;11.73;41.99
74613;BME280;63119;51.788;8.824;2023-04-19T08:22:49;101123.59;;;11.70;41.08
74613;BME280;63119;51.788;8.824;2023-04-19T08:25:15;101122.28;;;10.77;41.71
74613;BME280;63119;51.788;8.824;2023-04-19T08:27:40;101125.16;;;10.89;39.94
74613;BME280;63119;51.788;8.824;2023-04-19T08:30:06;101111.06;;;11.06;39.74
74613;BME280;63119;51.788;8.824;2023-04-19T08:32:32;101122.41;;;11.91;38.73
74613;BME280;63119;51.788;8.824;2023-04-19T08:34:57;101118.22;;;12.02;37.72
74613;BME280;63119;51.788;8.824;2023-04-19T08:37:22;101122.47;;;11.89;37.39
74613;BME280;63119;51.788;8.824;2023-04-19T08:39:49;101106.22;;;12.27;36.24
74613;BME280;63119;51.788;8.824;2023-04-19T08:42:14;101112.63;;;12.07;37.67
74613;BME280;63119;51.788;8.824;2023-04-19T08:44:40;101122.13;;;11.95;37.60
74613;BME280;63119;51.788;8.824;2023-04-19T08:47:06;101102.09;;;11.74;38.77
74613;BME280;63119;51.788;8.824;2023-04-19T08:49:35;101107.84;;;11.98;38.56
74613;BME280;63119;51.788;8.824;2023-04-19T08:52:03;101100.91;;;12.11;38.04
74613;BME280;63119;51.788;8.824;2023-04-19T08:54:29;101097.06;;;12.17;37.12
74613;BME280;63119;51.788;8.824;2023-04-19T08:56:57;101092.75;;;11.67;37.58
74613;BME280;63119;51.788;8.824;2023-04-19T08:59:23;101086.03;;;11.93;38.99
74613;BME280;63119;51.788;8.824;2023-04-19T09:01:48;101086.44;;;12.17;36.20
74613;BME280;63119;51.788;8.824;2023-04-19T09:04:14;101077.59;;;12.91;34.47
74613;BME280;63119;51.788;8.824;2023-04-19T09:06:40;101076.06;;;13.31;35.21
74613;BME280;63119;51.788;8.824;2023-04-19T09:09:20;101085.25;;;13.26;35.36
74613;BME280;63119;51.788;8.824;2023-04-19T09:11:45;101077.41;;;12.35;35.26
74613;BME280;63119;51.788;8.824;2023-04-19T09:14:13;101074.91;;;11.86;36.45
74613;BME280;63119;51.788;8.824;2023-04-19T09:16:39;101075.34;;;12.99;35.53
74613;BME280;63119;51.788;8.824;2023-04-19T09:19:05;101067.13;;;12.44;36.31
74613;BME280;63119;51.788;8.824;2023-04-19T09:21:31;101073.84;;;12.36;35.25
74613;BME280;63119;51.788;8.824;2023-04-19T09:23:58;101067.44;;;12.54;35.91
74613;BME280;63119;51.788;8.824;2023-04-19T09:26:24;101069.63;;;12.32;35.78
74613;BME280;63119;51.788;8.824;2023-04-19T09:29:06;101058.00;;;12.64;35.20
74613;BME280;63119;51.788;8.824;2023-04-19T09:31:36;101071.69;;;12.42;35.51
74613;BME280;63119;51.788;8.824;2023-04-19T09:34:12;101052.41;;;12.39;36.37
74613;BME280;63119;51.788;8.824;2023-04-19T09:36:38;101053.09;;;12.72;35.81
74613;BME280;63119;51.788;8.824;2023-04-19T09:39:03;101053.91;;;13.17;33.60
74613;BME280;63119;51.788;8.824;2023-04-19T09:41:30;101055.31;;;12.94;36.05
74613;BME280;63119;51.788;8.824;2023-04-19T09:44:09;101042.88;;;13.65;38.13
74613;BME280;63119;51.788;8.824;2023-04-19T09:46:35;101061.66;;;13.05;32.46
74613;BME280;63119;51.788;8.824;2023-04-19T09:51:46;101044.72;;;12.64;31.93
74613;BME280;63119;51.788;8.824;2023-04-19T09:54:12;101052.03;;;12.60;30.66
74613;BME280;63119;51.788;8.824;2023-04-19T09:56:38;101049.31;;;12.76;31.59
74613;BME280;63119;51.788;8.824;2023-04-19T09:59:05;101050.22;;;13.33;29.78
74613;BME280;63119;51.788;8.824;2023-04-19T10:01:34;101037.38;;;13.54;28.62
74613;BME280;63119;51.788;8.824;2023-04-19T10:04:03;101029.63;;;13.92;28.84
74613;BME280;63119;51.788;8.824;2023-04-19T10:06:29;101030.72;;;12.76;29.40
74613;BME280;63119;51.788;8.824;2023-04-19T10:08:56;101028.13;;;12.75;32.33
74613;BME280;63119;51.788;8.824;2023-04-19T10:11:24;101028.50;;;12.69;29.48
74613;BME280;63119;51.788;8.824;2023-04-19T10:13:55;101032.63;;;13.59;31.39
74613;BME280;63119;51.788;8.824;2023-04-19T10:16:23;101030.66;;;13.20;28.70
74613;BME280;63119;51.788;8.824;2023-04-19T10:18:49;101025.59;;;12.73;29.09
74613;BME280;63119;51.788;8.824;2023-04-19T10:21:16;101022.66;;;13.62;29.69
74613;BME280;63119;51.788;8.824;2023-04-19T10:23:43;101017.00;;;13.81;29.04
74613;BME280;63119;51.788;8.824;2023-04-19T10:26:08;101015.06;;;13.97;29.80
74613;BME280;63119;51.788;8.824;2023-04-19T10:28:34;101011.16;;;13.62;29.35
74613;BME280;63119;51.788;8.824;2023-04-19T10:31:02;101006.63;;;13.91;29.67
74613;BME280;63119;51.788;8.824;2023-04-19T10:33:30;100999.63;;;14.02;29.52
74613;BME280;63119;51.788;8.824;2023-04-19T10:35:57;100995.94;;;14.17;28.85
74613;BME280;63119;51.788;8.824;2023-04-19T10:38:46;100985.31;;;14.69;29.18
74613;BME280;63119;51.788;8.824;2023-04-19T10:41:13;100993.41;;;14.55;29.66
74613;BME280;63119;51.788;8.824;2023-04-19T10:43:42;101000.88;;;14.75;30.24
74613;BME280;63119;51.788;8.824;2023-04-19T10:51:17;100995.03;;;14.31;30.56
74613;BME280;63119;51.788;8.824;2023-04-19T10:54:00;100983.81;;;14.91;30.72
74613;BME280;63119;51.788;8.824;2023-04-19T11:04:08;100964.97;;;14.16;30.42
74613;BME280;63119;51.788;8.824;2023-04-19T11:06:34;100966.03;;;14.78;31.86
74613;BME280;63119;51.788;8.824;2023-04-19T11:09:01;100959.00;;;14.65;30.71
74613;BME280;63119;51.788;8.824;2023-04-19T11:11:33;100961.97;;;14.98;31.58
74613;BME280;63119;51.788;8.824;2023-04-19T11:14:01;100958.59;;;15.32;30.45
74613;BME280;63119;51.788;8.824;2023-04-19T11:16:26;100941.13;;;15.28;29.54
74613;BME280;63119;51.788;8.824;2023-04-19T11:18:52;100951.56;;;15.31;30.72
74613;BME280;63119;51.788;8.824;2023-04-19T11:21:18;100946.34;;;14.56;31.38
74613;BME280;63119;51.788;8.824;2023-04-19T11:23:43;100946.72;;;14.62;31.40
74613;BME280;63119;51.788;8.824;2023-04-19T11:26:09;100935.75;;;14.02;30.07
74613;BME280;63119;51.788;8.824;2023-04-19T11:28:35;100931.09;;;14.06;31.44
74613;BME280;63119;51.788;8.824;2023-04-19T11:31:01;100926.06;;;14.91;30.57
74613;BME280;63119;51.788;8.824;2023-04-19T11:33:35;100931.59;;;14.50;29.42
74613;BME280;63119;51.788;8.824;2023-04-19T11:36:01;100911.56;;;14.70;29.63
74613;BME280;63119;51.788;8.824;2023-04-19T11:38:27;100902.94;;;14.66;29.48
74613;BME280;63119;51.788;8.824;2023-04-19T11:40:59;100899.72;;;14.87;29.54
74613;BME280;63119;51.788;8.824;2023-04-19T11:43:51;100909.81;;;14.18;29.00
74613;BME280;63119;51.788;8.824;2023-04-19T11:46:17;100919.50;;;14.19;29.37
74613;BME280;63119;51.788;8.824;2023-04-19T11:48:52;100910.00;;;13.37;30.44
74613;BME280;63119;51.788;8.824;2023-04-19T11:51:18;100898.25;;;13.27;30.75
74613;BME280;63119;51.788;8.824;2023-04-19T11:53:43;100898.16;;;13.82;30.81
74613;BME280;63119;51.788;8.824;2023-04-19T11:56:09;100899.47;;;14.14;29.32
74613;BME280;63119;51.788;8.824;2023-04-19T11:58:43;100898.03;;;13.83;29.36
74613;BME280;63119;51.788;8.824;2023-04-19T12:01:18;100894.28;;;14.12;30.06
74613;BME280;63119;51.788;8.824;2023-04-19T12:03:46;100891.34;;;15.16;31.09
74613;BME280;63119;51.788;8.824;2023-04-19T12:06:14;100890.75;;;15.00;28.53
74613;BME280;63119;51.788;8.824;2023-04-19T12:08:46;100892.25;;;15.64;26.92
74613;BME280;63119;51.788;8.824;2023-04-19T12:11:12;100892.72;;;15.58;27.32
74613;BME280;63119;51.788;8.824;2023-04-19T12:13:37;100892.25;;;14.92;27.83
74613;BME280;63119;51.788;8.824;2023-04-19T12:16:05;100883.69;;;15.36;27.16
74613;BME280;63119;51.788;8.824;2023-04-19T12:18:47;100893.69;;;15.08;27.33
74613;BME280;63119;51.788;8.824;2023-04-19T12:21:27;100888.78;;;14.53;27.26
74613;BME280;63119;51.788;8.824;2023-04-19T12:23:58;100870.56;;;15.09;27.90
74613;BME280;63119;51.788;8.824;2023-04-19T12:26:25;100874.59;;;15.14;27.16
74613;BME280;63119;51.788;8.824;2023-04-19T12:28:54;100860.56;;;15.00;28.51
74613;BME280;63119;51.788;8.824;2023-04-19T12:31:20;100861.91;;;15.42;27.83
74613;BME280;63119;51.788;8.824;2023-04-19T12:33:45;100863.91;;;14.78;29.07
74613;BME280;63119;51.788;8.824;2023-04-19T12:36:11;100851.81;;;15.10;28.48
74613;BME280;63119;51.788;8.824;2023-04-19T12:38:36;100852.19;;;15.17;30.86
74613;BME280;63119;51.788;8.824;2023-04-19T12:41:02;100846.09;;;15.51;27.95
74613;BME280;63119;51.788;8.824;2023-04-19T12:43:27;100838.31;;;15.72;28.52
74613;BME280;63119;51.788;8.824;2023-04-19T12:45:54;100836.53;;;14.89;28.34
74613;BME280;63119;51.788;8.824;2023-04-19T12:48:19;100830.44;;;14.38;29.56
74613;BME280;63119;51.788;8.824;2023-04-19T12:50:45;100824.41;;;15.08;29.58
74613;BME280;63119;51.788;8.824;2023-04-19T12:53:10;100820.72;;;15.46;28.50
74613;BME280;63119;51.788;8.824;2023-04-19T12:55:35;100813.41;;;15.95;29.47
74613;BME280;63119;51.788;8.824;2023-04-19T12:58:01;100816.91;;;15.50;27.89
74613;BME280;63119;51.788;8.824;2023-04-19T13:00:26;100800.28;;;15.92;27.94
74613;BME280;63119;51.788;8.824;2023-04-19T13:02:51;100799.09;;;15.50;27.23
74613;BME280;63119;51.788;8.824;2023-04-19T13:05:17;100796.38;;;15.26;28.68
74613;BME280;63119;51.788;8.824;2023-04-19T13:07:42;100786.59;;;14.67;28.90